createdAt,value
2024-02-16T00:00:19.899Z,14.98
2024-02-16T00:02:46.582Z,15.23
2024-02-16T00:05:12.819Z,15.57
2024-02-16T00:07:39.769Z,15.05
2024-02-16T00:10:07.013Z,15.77
2024-02-16T00:12:34.516Z,15.63
2024-02-16T00:15:01.671Z,15.45
2024-02-16T00:17:27.703Z,14.77
2024-02-16T00:19:54.340Z,15.00
2024-02-16T00:22:20.982Z,15.93
2024-02-16T00:24:46.997Z,15.15
2024-02-16T00:27:14.383Z,13.98
2024-02-16T00:29:40.869Z,15.02
2024-02-16T00:32:07.501Z,15.43
2024-02-16T00:34:39.108Z,14.38
2024-02-16T00:37:09.839Z,14.65
2024-02-16T00:39:41.499Z,14.95
2024-02-16T00:42:07.783Z,13.88
2024-02-16T00:44:33.715Z,13.98
2024-02-16T00:46:59.660Z,14.88
2024-02-16T00:49:25.617Z,14.50
2024-02-16T00:51:51.768Z,14.00
2024-02-16T00:54:18.443Z,15.50
2024-02-16T00:56:44.343Z,14.60
2024-02-16T00:59:10.368Z,15.10
2024-02-16T01:01:36.591Z,15.30
2024-02-16T01:04:03.359Z,16.40
2024-02-16T01:06:29.284Z,15.95
2024-02-16T01:08:56.264Z,14.55
2024-02-16T01:11:22.195Z,14.93
2024-02-16T01:13:48.248Z,16.02
2024-02-16T01:16:14.086Z,15.88
2024-02-16T01:18:40.454Z,15.05
2024-02-16T01:21:06.347Z,15.02
2024-02-16T01:23:32.959Z,15.75
2024-02-16T01:25:58.754Z,14.45
2024-02-16T01:28:24.578Z,16.13
2024-02-16T01:30:50.970Z,14.90
2024-02-16T01:33:17.335Z,16.25
2024-02-16T01:35:43.313Z,15.52
2024-02-16T01:38:09.727Z,14.73
2024-02-16T01:40:35.558Z,15.23
2024-02-16T01:43:01.516Z,14.48
2024-02-16T01:45:27.551Z,13.90
2024-02-16T01:47:55.416Z,14.93
2024-02-16T01:50:22.571Z,14.55
2024-02-16T01:52:49.251Z,14.05
2024-02-16T01:55:18.517Z,15.60
2024-02-16T01:57:45.967Z,14.20
2024-02-16T02:00:12.597Z,13.63
2024-02-16T02:02:38.613Z,14.38
2024-02-16T02:05:05.062Z,13.57
2024-02-16T02:07:31.312Z,12.73
2024-02-16T02:09:57.299Z,12.27
2024-02-16T02:12:23.454Z,12.80
2024-02-16T02:14:49.932Z,12.27
2024-02-16T02:17:16.650Z,11.75
2024-02-16T02:19:42.606Z,11.90
2024-02-16T02:22:20.703Z,11.88
2024-02-16T02:24:49.637Z,11.60
2024-02-16T02:27:15.920Z,12.02
2024-02-16T02:29:42.344Z,11.40
2024-02-16T02:32:08.923Z,12.00
2024-02-16T02:34:36.949Z,11.20
2024-02-16T02:37:04.492Z,11.73
2024-02-16T02:39:31.324Z,11.80
2024-02-16T02:41:58.348Z,12.60
2024-02-16T02:44:25.246Z,11.85
2024-02-16T02:46:52.289Z,12.35
2024-02-16T02:49:21.506Z,13.73
2024-02-16T02:51:47.657Z,12.00
2024-02-16T02:54:13.500Z,13.00
2024-02-16T02:56:39.376Z,12.27
2024-02-16T02:59:06.329Z,11.93
2024-02-16T03:01:32.605Z,12.38
2024-02-16T03:04:00.640Z,12.25
2024-02-16T03:06:26.836Z,11.88
2024-02-16T03:08:52.957Z,13.57
2024-02-16T03:11:18.897Z,12.50
2024-02-16T03:13:44.861Z,13.23
2024-02-16T03:16:10.747Z,13.75
2024-02-16T03:18:36.784Z,11.60
2024-02-16T03:21:02.952Z,13.25
2024-02-16T03:23:28.834Z,13.15
2024-02-16T03:25:55.141Z,13.20
2024-02-16T03:28:21.288Z,12.90
2024-02-16T03:30:47.510Z,12.10
2024-02-16T03:33:13.878Z,12.50
2024-02-16T03:35:40.615Z,13.32
2024-02-16T03:38:07.017Z,11.63
2024-02-16T03:40:32.910Z,13.68
2024-02-16T03:42:59.450Z,12.75
2024-02-16T03:45:27.508Z,12.90
2024-02-16T03:47:53.785Z,12.95
2024-02-16T03:50:20.264Z,13.38
2024-02-16T03:52:46.093Z,12.75
2024-02-16T03:55:11.912Z,13.45
2024-02-16T03:57:38.480Z,12.98
2024-02-16T04:00:08.740Z,13.63
2024-02-16T04:02:34.762Z,14.02
2024-02-16T04:05:00.579Z,12.43
2024-02-16T04:07:26.518Z,13.80
2024-02-16T04:09:52.337Z,13.10
2024-02-16T04:12:18.153Z,13.50
2024-02-16T04:14:44.412Z,14.48
2024-02-16T04:17:10.414Z,12.77
2024-02-16T04:19:39.513Z,12.88
2024-02-16T04:22:05.481Z,12.80
2024-02-16T04:24:31.486Z,12.57
2024-02-16T04:26:57.473Z,13.63
2024-02-16T04:29:23.534Z,11.82
2024-02-16T04:31:49.490Z,13.63
2024-02-16T04:34:15.386Z,13.15
2024-02-16T04:36:41.567Z,12.43
2024-02-16T04:39:07.581Z,13.32
2024-02-16T04:41:33.518Z,13.05
2024-02-16T04:43:59.353Z,12.95
2024-02-16T04:46:25.270Z,12.52
2024-02-16T04:48:51.233Z,12.10
2024-02-16T04:51:17.213Z,12.38
2024-02-16T04:53:43.291Z,13.40
2024-02-16T04:56:09.064Z,13.45
2024-02-16T04:58:34.905Z,12.43
2024-02-16T05:01:00.754Z,12.82
2024-02-16T05:03:26.737Z,12.65
2024-02-16T05:05:52.873Z,13.25
2024-02-16T05:08:18.828Z,12.20
2024-02-16T05:10:44.889Z,13.23
2024-02-16T05:13:12.327Z,12.63
2024-02-16T05:15:38.369Z,13.18
2024-02-16T05:18:07.519Z,13.70
2024-02-16T05:20:33.436Z,12.55
2024-02-16T05:22:59.341Z,13.90
2024-02-16T05:25:25.134Z,14.18
2024-02-16T05:27:50.975Z,13.48
2024-02-16T05:30:17.363Z,14.25
2024-02-16T05:32:45.044Z,13.43
2024-02-16T05:35:15.447Z,13.77
2024-02-16T05:37:44.587Z,13.73
2024-02-16T05:40:27.625Z,15.02
2024-02-16T05:42:54.254Z,15.32
2024-02-16T05:45:21.783Z,15.85
2024-02-16T05:47:47.955Z,15.25
2024-02-16T05:50:15.860Z,15.35
2024-02-16T05:52:43.003Z,14.98
2024-02-16T05:55:10.312Z,14.77
2024-02-16T05:57:37.715Z,15.10
2024-02-16T06:00:08.786Z,17.27
2024-02-16T06:02:35.033Z,15.73
2024-02-16T06:05:03.159Z,15.40
2024-02-16T06:07:29.798Z,14.90
2024-02-16T06:09:56.689Z,37.30
2024-02-16T06:12:22.891Z,31.30
2024-02-16T06:14:48.941Z,27.48
2024-02-16T06:17:15.276Z,25.67
2024-02-16T06:19:44.592Z,23.30
2024-02-16T06:22:10.881Z,20.58
2024-02-16T06:24:37.228Z,17.25
2024-02-16T06:27:04.152Z,15.93
2024-02-16T06:29:30.782Z,15.73
2024-02-16T06:31:57.318Z,16.35
2024-02-16T06:34:23.326Z,16.27
2024-02-16T06:36:49.570Z,14.57
2024-02-16T06:39:19.048Z,14.88
2024-02-16T06:41:46.098Z,15.85
2024-02-16T06:44:13.329Z,16.25
2024-02-16T06:46:39.313Z,15.40
2024-02-16T06:49:05.371Z,18.05
2024-02-16T06:51:31.421Z,16.95
2024-02-16T06:53:57.431Z,16.42
2024-02-16T06:56:24.485Z,18.83
2024-02-16T06:58:50.794Z,16.60
2024-02-16T07:01:19.108Z,16.10
2024-02-16T07:03:45.200Z,16.80
2024-02-16T07:06:14.045Z,16.10
2024-02-16T07:08:44.352Z,20.00
2024-02-16T07:11:14.036Z,19.92
2024-02-16T07:13:41.148Z,33.13
2024-02-16T07:16:07.454Z,16.92
2024-02-16T07:18:36.549Z,16.98
2024-02-16T07:21:03.377Z,16.45
2024-02-16T07:23:29.742Z,15.48
2024-02-16T07:25:56.990Z,17.23
2024-02-16T07:28:23.679Z,15.20
2024-02-16T07:30:50.728Z,14.77
2024-02-16T07:33:16.848Z,16.40
2024-02-16T07:35:42.825Z,19.10
2024-02-16T07:38:08.643Z,15.18
2024-02-16T07:40:34.520Z,14.93
2024-02-16T07:43:01.278Z,14.77
2024-02-16T07:45:27.231Z,15.30
2024-02-16T07:47:53.260Z,14.50
2024-02-16T07:50:22.568Z,14.50
2024-02-16T07:52:49.285Z,14.75
2024-02-16T07:55:15.434Z,14.35
2024-02-16T07:57:41.748Z,13.95
2024-02-16T08:00:08.328Z,13.75
2024-02-16T08:02:34.262Z,13.68
2024-02-16T08:05:00.278Z,9.40
2024-02-16T08:07:26.514Z,14.75
2024-02-16T08:09:52.450Z,14.32
2024-02-16T08:12:18.648Z,15.75
2024-02-16T08:14:46.752Z,13.40
2024-02-16T08:17:19.404Z,15.10
2024-02-16T08:19:53.262Z,14.65
2024-02-16T08:22:19.352Z,14.73
2024-02-16T08:24:46.795Z,15.05
2024-02-16T08:27:13.444Z,13.43
2024-02-16T08:29:39.428Z,15.20
2024-02-16T08:32:06.274Z,13.82
2024-02-16T08:34:32.347Z,13.02
2024-02-16T08:36:58.251Z,12.93
2024-02-16T08:39:27.130Z,11.32
2024-02-16T08:41:53.048Z,11.85
2024-02-16T08:44:19.433Z,11.13
2024-02-16T08:46:47.039Z,10.95
2024-02-16T08:49:13.125Z,10.48
2024-02-16T08:51:41.285Z,11.07
2024-02-16T08:54:10.644Z,10.40
2024-02-16T08:56:39.604Z,9.50
2024-02-16T08:59:06.327Z,9.15
2024-02-16T09:01:35.878Z,9.85
2024-02-16T09:04:02.825Z,11.10
2024-02-16T09:06:29.613Z,10.30
2024-02-16T09:08:56.398Z,14.35
2024-02-16T09:11:23.751Z,16.55
2024-02-16T09:13:50.507Z,11.18
2024-02-16T09:16:16.380Z,8.20
2024-02-16T09:18:42.549Z,8.05
2024-02-16T09:21:08.802Z,9.32
2024-02-16T09:23:36.553Z,8.60
2024-02-16T09:26:02.917Z,8.25
2024-02-16T09:28:30.526Z,9.13
2024-02-16T09:30:57.734Z,7.63
2024-02-16T09:33:24.914Z,8.18
2024-02-16T09:35:51.293Z,8.65
2024-02-16T09:38:18.085Z,9.45
2024-02-16T09:40:44.426Z,8.95
2024-02-16T09:43:10.505Z,8.15
2024-02-16T09:45:36.486Z,8.15
2024-02-16T09:48:04.324Z,8.27
2024-02-16T09:50:33.850Z,7.65
2024-02-16T09:53:00.738Z,6.57
2024-02-16T09:55:29.844Z,7.40
2024-02-16T09:58:00.335Z,7.78
2024-02-16T10:00:26.396Z,8.45
2024-02-16T10:02:52.582Z,8.25
2024-02-16T10:05:21.350Z,8.20
2024-02-16T10:07:47.977Z,8.00
2024-02-16T10:10:25.047Z,7.53
2024-02-16T10:13:04.591Z,8.77
2024-02-16T10:15:31.149Z,8.02
2024-02-16T10:18:07.391Z,8.63
2024-02-16T10:20:35.568Z,7.60
2024-02-16T10:23:11.528Z,7.57
2024-02-16T10:25:39.749Z,7.45
2024-02-16T10:28:10.690Z,8.43
2024-02-16T10:30:38.848Z,7.32
2024-02-16T10:33:06.611Z,8.38
2024-02-16T10:35:35.829Z,6.05
2024-02-16T10:38:06.454Z,6.28
2024-02-16T10:40:41.103Z,7.07
2024-02-16T10:43:08.598Z,6.57
2024-02-16T10:45:36.772Z,6.53
2024-02-16T10:48:03.967Z,6.88
2024-02-16T10:50:29.989Z,6.15
2024-02-16T10:52:58.697Z,6.07
2024-02-16T10:55:25.090Z,5.85
2024-02-16T10:57:53.304Z,5.93
2024-02-16T11:00:20.348Z,5.88
2024-02-16T11:02:59.265Z,6.10
2024-02-16T11:05:43.219Z,6.22
2024-02-16T11:08:16.741Z,6.28
2024-02-16T11:11:04.181Z,5.72
2024-02-16T11:13:35.252Z,5.47
2024-02-16T11:16:01.939Z,6.45
2024-02-16T11:18:29.583Z,5.35
2024-02-16T11:20:55.997Z,5.40
2024-02-16T11:23:29.679Z,6.25
2024-02-16T11:26:04.244Z,6.15
2024-02-16T11:28:35.046Z,6.25
2024-02-16T11:31:02.950Z,5.88
2024-02-16T11:33:30.058Z,5.90
2024-02-16T11:35:57.989Z,6.05
2024-02-16T11:38:24.538Z,6.05
2024-02-16T11:40:58.195Z,5.95
2024-02-16T11:43:25.341Z,5.88
2024-02-16T11:45:52.016Z,6.95
2024-02-16T11:48:23.207Z,6.07
2024-02-16T11:50:50.728Z,5.38
2024-02-16T11:53:23.763Z,5.82
2024-02-16T11:55:50.770Z,6.13
2024-02-16T11:58:19.209Z,6.63
2024-02-16T12:00:46.824Z,5.82
2024-02-16T12:03:12.758Z,5.80
2024-02-16T12:05:38.953Z,6.80
2024-02-16T12:08:07.722Z,6.55
2024-02-16T12:10:33.792Z,7.15
2024-02-16T12:13:02.723Z,7.25
2024-02-16T12:15:30.648Z,6.50
2024-02-16T12:18:01.820Z,6.70
2024-02-16T12:20:28.491Z,6.60
2024-02-16T12:22:54.399Z,6.03
2024-02-16T12:25:20.196Z,5.97
2024-02-16T12:27:46.096Z,6.20
2024-02-16T12:30:13.008Z,5.75
2024-02-16T12:32:39.031Z,6.05
2024-02-16T12:35:06.160Z,6.07
2024-02-16T12:37:32.137Z,6.55
2024-02-16T12:39:58.012Z,6.93
2024-02-16T12:42:23.896Z,4.90
2024-02-16T12:44:50.125Z,5.90
2024-02-16T12:47:15.968Z,6.10
2024-02-16T12:49:42.098Z,6.82
2024-02-16T12:52:08.018Z,6.47
2024-02-16T12:54:35.086Z,6.47
2024-02-16T12:57:00.987Z,6.20
2024-02-16T12:59:26.992Z,5.95
2024-02-16T13:01:53.021Z,5.90
2024-02-16T13:04:22.298Z,5.90
2024-02-16T13:06:49.616Z,6.15
2024-02-16T13:09:15.634Z,6.38
2024-02-16T13:11:41.457Z,5.57
2024-02-16T13:14:07.936Z,5.97
2024-02-16T13:16:33.816Z,6.35
2024-02-16T13:18:59.786Z,6.38
2024-02-16T13:21:25.747Z,6.43
2024-02-16T13:23:51.696Z,6.05
2024-02-16T13:26:17.568Z,6.07
2024-02-16T13:28:43.471Z,5.63
2024-02-16T13:31:11.762Z,5.80
2024-02-16T13:33:37.866Z,5.72
2024-02-16T13:36:05.696Z,6.43
2024-02-16T13:38:31.645Z,5.97
2024-02-16T13:40:57.513Z,6.55
2024-02-16T13:43:23.462Z,6.88
2024-02-16T13:45:53.900Z,6.38
2024-02-16T13:48:20.824Z,5.90
2024-02-16T13:50:47.832Z,6.45
2024-02-16T13:53:16.980Z,6.95
2024-02-16T13:55:44.818Z,7.18
2024-02-16T13:58:11.713Z,6.45
2024-02-16T14:00:37.697Z,7.38
2024-02-16T14:03:09.067Z,5.47
2024-02-16T14:05:38.890Z,5.47
2024-02-16T14:08:08.702Z,6.35
2024-02-16T14:10:35.196Z,6.38
2024-02-16T14:13:01.324Z,5.55
2024-02-16T14:15:29.575Z,6.45
2024-02-16T14:17:57.398Z,5.45
2024-02-16T14:20:24.721Z,6.50
2024-02-16T14:22:50.671Z,5.88
2024-02-16T14:25:16.656Z,5.90
2024-02-16T14:27:42.848Z,7.03
2024-02-16T14:30:09.291Z,6.20
2024-02-16T14:32:35.336Z,6.47
2024-02-16T14:35:01.342Z,6.32
2024-02-16T14:37:28.594Z,6.90
2024-02-16T14:39:57.894Z,5.82
2024-02-16T14:44:53.019Z,5.50
2024-02-16T14:47:22.301Z,6.25
2024-02-16T14:49:49.136Z,6.45
2024-02-16T14:52:15.042Z,5.55
2024-02-16T14:54:40.967Z,6.03
2024-02-16T14:57:06.896Z,6.15
2024-02-16T14:59:32.755Z,6.20
2024-02-16T15:02:00.413Z,5.43
2024-02-16T15:04:26.358Z,6.03
2024-02-16T15:06:52.254Z,6.30
2024-02-16T15:09:18.163Z,5.97
2024-02-16T15:11:44.163Z,6.25
2024-02-16T15:14:10.048Z,6.03
2024-02-16T15:16:35.871Z,6.03
2024-02-16T15:19:03.254Z,5.47
2024-02-16T15:21:29.217Z,7.35
2024-02-16T15:23:55.661Z,8.02
2024-02-16T15:26:22.435Z,8.13
2024-02-16T15:28:48.519Z,7.10
2024-02-16T15:31:14.476Z,7.45
2024-02-16T15:33:40.520Z,7.10
2024-02-16T15:36:09.233Z,7.80
2024-02-16T15:38:35.088Z,7.50
2024-02-16T15:41:00.899Z,7.68
2024-02-16T15:43:27.878Z,7.28
2024-02-16T15:45:53.750Z,7.07
2024-02-16T15:48:19.791Z,8.90
2024-02-16T15:50:45.711Z,8.20
2024-02-16T15:53:12.087Z,8.00
2024-02-16T15:55:38.119Z,6.80
2024-02-16T15:58:04.093Z,7.68
2024-02-16T16:00:29.988Z,7.43
2024-02-16T16:02:56.540Z,7.88
2024-02-16T16:05:22.433Z,7.90
2024-02-16T16:07:48.309Z,8.73
2024-02-16T16:10:17.048Z,8.73
2024-02-16T16:12:42.969Z,8.95
2024-02-16T16:15:09.448Z,8.32
2024-02-16T16:17:35.492Z,8.70
2024-02-16T16:20:02.590Z,7.90
2024-02-16T16:22:28.852Z,7.82
2024-02-16T16:24:54.768Z,7.53
2024-02-16T16:27:20.723Z,8.15
2024-02-16T16:29:46.710Z,8.32
2024-02-16T16:32:12.616Z,9.52
2024-02-16T16:34:38.558Z,8.38
2024-02-16T16:37:04.990Z,9.35
2024-02-16T16:39:30.806Z,8.75
2024-02-16T16:41:57.025Z,9.02
2024-02-16T16:44:23.131Z,8.95
2024-02-16T16:46:49.542Z,7.78
2024-02-16T16:49:16.856Z,8.48
2024-02-16T16:51:43.557Z,9.07
2024-02-16T16:54:09.889Z,7.90
2024-02-16T16:56:35.749Z,9.43
2024-02-16T16:59:02.022Z,9.25
2024-02-16T17:01:28.395Z,9.38
2024-02-16T17:03:54.650Z,9.15
2024-02-16T17:06:20.633Z,8.23
2024-02-16T17:08:46.889Z,8.93
2024-02-16T17:11:13.161Z,9.02
2024-02-16T17:13:39.758Z,7.78
2024-02-16T17:16:06.292Z,9.18
2024-02-16T17:18:36.158Z,10.43
2024-02-16T17:21:02.376Z,9.45
2024-02-16T17:23:29.192Z,11.13
2024-02-16T17:25:56.075Z,10.77
2024-02-16T17:28:21.869Z,12.50
2024-02-16T17:30:48.695Z,11.02
2024-02-16T17:33:14.875Z,12.57
2024-02-16T17:35:42.091Z,17.50
2024-02-16T17:38:11.290Z,32.35
2024-02-16T17:40:37.158Z,48.72
2024-02-16T17:43:04.439Z,21.45
2024-02-16T17:45:30.970Z,16.50
2024-02-16T17:47:57.126Z,13.38
2024-02-16T17:50:25.037Z,12.88
2024-02-16T17:52:50.957Z,13.90
2024-02-16T17:55:16.791Z,14.32
2024-02-16T17:57:42.699Z,12.30
2024-02-16T18:00:09.183Z,14.02
2024-02-16T18:02:41.219Z,18.75
2024-02-16T18:05:11.605Z,21.60
2024-02-16T18:07:37.660Z,19.40
2024-02-16T18:10:07.976Z,15.63
2024-02-16T18:12:35.350Z,14.60
2024-02-16T18:15:01.375Z,15.80
2024-02-16T18:17:27.319Z,14.07
2024-02-16T18:19:54.704Z,15.20
2024-02-16T18:22:20.629Z,15.30
2024-02-16T18:24:46.500Z,13.88
2024-02-16T18:27:13.204Z,13.55
2024-02-16T18:29:39.085Z,14.75
2024-02-16T18:32:05.073Z,14.65
2024-02-16T18:34:31.717Z,14.23
2024-02-16T18:36:57.781Z,13.52
2024-02-16T18:39:25.224Z,12.82
2024-02-16T18:41:53.581Z,13.43
2024-02-16T18:44:19.910Z,13.63
2024-02-16T18:46:45.950Z,14.07
2024-02-16T18:49:12.458Z,14.90
2024-02-16T18:51:38.490Z,16.65
2024-02-16T18:54:06.127Z,16.58
2024-02-16T18:56:32.654Z,15.98
2024-02-16T18:58:58.626Z,15.90
2024-02-16T19:01:24.733Z,16.95
2024-02-16T19:03:51.092Z,16.58
2024-02-16T19:06:17.259Z,15.27
2024-02-16T19:08:43.687Z,14.90
2024-02-16T19:11:09.829Z,15.75
2024-02-16T19:13:38.159Z,16.10
2024-02-16T19:16:05.489Z,15.60
2024-02-16T19:18:31.779Z,14.90
2024-02-16T19:20:59.308Z,14.52
2024-02-16T19:23:25.458Z,14.98
2024-02-16T19:25:51.413Z,15.05
2024-02-16T19:28:17.952Z,14.95
2024-02-16T19:30:44.000Z,14.52
2024-02-16T19:33:10.268Z,14.70
2024-02-16T19:35:37.025Z,14.93
2024-02-16T19:38:03.375Z,14.43
2024-02-16T19:40:29.372Z,13.70
2024-02-16T19:42:55.451Z,14.65
2024-02-16T19:45:28.415Z,13.73
2024-02-16T19:47:55.273Z,13.90
2024-02-16T19:50:21.319Z,14.25
2024-02-16T19:52:47.904Z,15.45
2024-02-16T19:55:14.552Z,16.23
2024-02-16T19:57:40.854Z,14.80
2024-02-16T20:00:08.038Z,13.15
2024-02-16T20:02:34.051Z,13.48
2024-02-16T20:05:00.046Z,12.70
2024-02-16T20:07:28.582Z,12.38
2024-02-16T20:09:55.684Z,13.93
2024-02-16T20:12:22.278Z,13.57
2024-02-16T20:14:49.418Z,14.40
2024-02-16T20:17:15.896Z,13.00
2024-02-16T20:19:42.132Z,13.43
2024-02-16T20:22:09.070Z,14.15
2024-02-16T20:24:35.917Z,14.18
2024-02-16T20:27:03.714Z,14.32
2024-02-16T20:29:29.977Z,13.13
2024-02-16T20:31:55.937Z,13.68
2024-02-16T20:34:21.976Z,13.60
2024-02-16T20:36:50.663Z,13.02
2024-02-16T20:39:16.656Z,13.35
2024-02-16T20:41:44.514Z,12.82
2024-02-16T20:44:10.454Z,13.05
2024-02-16T20:46:37.929Z,12.40
2024-02-16T20:49:04.706Z,13.27
2024-02-16T20:51:30.660Z,13.43
2024-02-16T20:53:56.828Z,13.90
2024-02-16T20:56:22.792Z,12.77
2024-02-16T20:58:48.695Z,13.45
2024-02-16T21:01:14.757Z,13.32
2024-02-16T21:03:40.839Z,13.60
2024-02-16T21:06:06.958Z,15.05
2024-02-16T21:08:32.899Z,13.35
2024-02-16T21:10:58.817Z,12.88
2024-02-16T21:13:24.739Z,13.65
2024-02-16T21:15:50.787Z,13.00
2024-02-16T21:18:16.706Z,12.00
2024-02-16T21:20:42.897Z,13.25
2024-02-16T21:23:08.785Z,12.20
2024-02-16T21:25:34.598Z,12.10
2024-02-16T21:28:01.236Z,12.60
2024-02-16T21:30:27.101Z,12.52
2024-02-16T21:32:53.042Z,13.57
2024-02-16T21:35:21.114Z,12.32
2024-02-16T21:37:47.759Z,12.32
2024-02-16T21:40:14.138Z,12.35
2024-02-16T21:42:40.206Z,12.63
2024-02-16T21:45:09.573Z,12.55
2024-02-16T21:47:35.690Z,11.40
2024-02-16T21:50:02.448Z,11.60
2024-02-16T21:52:28.520Z,10.90
2024-02-16T21:54:54.323Z,10.65
2024-02-16T21:57:22.553Z,11.10
2024-02-16T21:59:48.411Z,11.45
2024-02-16T22:02:16.733Z,10.68
2024-02-16T22:04:44.195Z,11.35
2024-02-16T22:07:11.321Z,10.55
2024-02-16T22:09:37.381Z,12.00
2024-02-16T22:12:04.538Z,10.82
2024-02-16T22:14:30.401Z,11.75
2024-02-16T22:16:56.256Z,14.90
2024-02-16T22:19:23.076Z,15.25
2024-02-16T22:21:48.997Z,11.63
2024-02-16T22:24:14.864Z,12.98
2024-02-16T22:26:41.568Z,12.13
2024-02-16T22:29:07.760Z,12.05
2024-02-16T22:31:39.548Z,11.43
2024-02-16T22:34:09.195Z,10.07
2024-02-16T22:36:35.109Z,10.68
2024-02-16T22:39:01.077Z,12.45
2024-02-16T22:41:27.080Z,13.95
2024-02-16T22:43:52.861Z,12.13
2024-02-16T22:46:18.772Z,10.93
2024-02-16T22:48:44.763Z,10.82
2024-02-16T22:51:10.660Z,12.52
2024-02-16T22:53:36.607Z,11.13
2024-02-16T22:56:02.397Z,11.25
2024-02-16T22:58:28.362Z,10.80
2024-02-16T23:00:56.843Z,11.80
2024-02-16T23:03:23.031Z,10.27
2024-02-16T23:05:51.327Z,11.05
2024-02-16T23:08:17.221Z,10.93
2024-02-16T23:10:43.708Z,11.02
2024-02-16T23:13:11.828Z,11.23
2024-02-16T23:15:38.799Z,12.15
2024-02-16T23:18:05.408Z,11.60
2024-02-16T23:20:31.929Z,10.07
2024-02-16T23:23:02.403Z,11.70
2024-02-16T23:25:34.769Z,10.55
2024-02-16T23:28:01.161Z,11.07
2024-02-16T23:30:27.081Z,10.32
2024-02-16T23:32:55.288Z,11.15
2024-02-16T23:35:22.131Z,10.75
2024-02-16T23:37:48.490Z,11.13
2024-02-16T23:40:14.983Z,10.60
2024-02-16T23:42:44.984Z,11.48
2024-02-16T23:45:12.580Z,11.30
2024-02-16T23:47:39.156Z,10.55
2024-02-16T23:50:06.472Z,11.25
2024-02-16T23:52:33.414Z,10.40
2024-02-16T23:55:00.442Z,11.38
2024-02-16T23:57:29.314Z,11.45
2024-02-16T23:59:55.356Z,12.00
